sensor_id;sensor_type;location;lat;lon;timestamp;pressure;altitude;pressure_sealevel;temperature
13570;BMP180;6856;51.460;7.158;2023-07-28T00:01:53;99397.00;;;21.90
13570;BMP180;6856;51.460;7.158;2023-07-28T00:04:27;99394.00;;;21.90
13570;BMP180;6856;51.460;7.158;2023-07-28T00:07:00;99398.00;;;21.90
13570;BMP180;6856;51.460;7.158;2023-07-28T00:09:34;99398.00;;;21.90
13570;BMP180;6856;51.460;7.158;2023-07-28T00:12:09;99401.00;;;21.90
13570;BMP180;6856;51.460;7.158;2023-07-28T00:14:43;99399.00;;;21.90
13570;BMP180;6856;51.460;7.158;2023-07-28T00:17:17;99398.00;;;21.90
13570;BMP180;6856;51.460;7.158;2023-07-28T00:19:50;99405.00;;;21.90
13570;BMP180;6856;51.460;7.158;2023-07-28T00:22:24;99400.00;;;21.90
13570;BMP180;6856;51.460;7.158;2023-07-28T00:24:58;99403.00;;;21.90
13570;BMP180;6856;51.460;7.158;2023-07-28T00:27:33;99409.00;;;21.90
13570;BMP180;6856;51.460;7.158;2023-07-28T00:30:09;99391.00;;;21.80
13570;BMP180;6856;51.460;7.158;2023-07-28T00:32:43;99400.00;;;21.80
13570;BMP180;6856;51.460;7.158;2023-07-28T00:35:18;99396.00;;;21.80
13570;BMP180;6856;51.460;7.158;2023-07-28T00:37:52;99387.00;;;21.80
13570;BMP180;6856;51.460;7.158;2023-07-28T00:40:26;99394.00;;;21.80
13570;BMP180;6856;51.460;7.158;2023-07-28T00:43:03;99394.00;;;21.80
13570;BMP180;6856;51.460;7.158;2023-07-28T00:45:36;99387.00;;;21.80
13570;BMP180;6856;51.460;7.158;2023-07-28T00:48:13;99385.00;;;21.80
13570;BMP180;6856;51.460;7.158;2023-07-28T00:50:48;99393.00;;;21.80
13570;BMP180;6856;51.460;7.158;2023-07-28T00:53:25;99389.00;;;21.80
13570;BMP180;6856;51.460;7.158;2023-07-28T00:56:02;99393.00;;;21.80
13570;BMP180;6856;51.460;7.158;2023-07-28T00:58:37;99396.00;;;21.80
13570;BMP180;6856;51.460;7.158;2023-07-28T01:01:10;99387.00;;;21.80
13570;BMP180;6856;51.460;7.158;2023-07-28T01:03:44;99395.00;;;21.90
13570;BMP180;6856;51.460;7.158;2023-07-28T01:06:26;99391.00;;;21.80
13570;BMP180;6856;51.460;7.158;2023-07-28T01:09:11;99376.00;;;21.80
13570;BMP180;6856;51.460;7.158;2023-07-28T01:11:55;99396.00;;;21.90
13570;BMP180;6856;51.460;7.158;2023-07-28T01:14:30;99388.00;;;21.80
13570;BMP180;6856;51.460;7.158;2023-07-28T01:17:04;99386.00;;;21.90
13570;BMP180;6856;51.460;7.158;2023-07-28T01:19:38;99385.00;;;21.80
13570;BMP180;6856;51.460;7.158;2023-07-28T01:22:46;99394.00;;;21.80
13570;BMP180;6856;51.460;7.158;2023-07-28T01:25:36;99390.00;;;21.80
13570;BMP180;6856;51.460;7.158;2023-07-28T01:28:13;99394.00;;;21.80
13570;BMP180;6856;51.460;7.158;2023-07-28T01:30:48;99390.00;;;21.80
13570;BMP180;6856;51.460;7.158;2023-07-28T01:33:22;99396.00;;;21.80
13570;BMP180;6856;51.460;7.158;2023-07-28T01:35:56;99386.00;;;21.80
13570;BMP180;6856;51.460;7.158;2023-07-28T01:38:32;99384.00;;;21.80
13570;BMP180;6856;51.460;7.158;2023-07-28T01:41:06;99379.00;;;21.80
13570;BMP180;6856;51.460;7.158;2023-07-28T01:43:41;99380.00;;;21.80
13570;BMP180;6856;51.460;7.158;2023-07-28T01:46:16;99380.00;;;21.80
13570;BMP180;6856;51.460;7.158;2023-07-28T01:48:50;99384.00;;;21.80
13570;BMP180;6856;51.460;7.158;2023-07-28T01:51:24;99379.00;;;21.80
13570;BMP180;6856;51.460;7.158;2023-07-28T01:53:57;99383.00;;;21.80
13570;BMP180;6856;51.460;7.158;2023-07-28T01:56:31;99381.00;;;21.80
13570;BMP180;6856;51.460;7.158;2023-07-28T01:59:07;99386.00;;;21.80
13570;BMP180;6856;51.460;7.158;2023-07-28T02:01:42;99386.00;;;21.80
13570;BMP180;6856;51.460;7.158;2023-07-28T02:04:16;99387.00;;;21.80
13570;BMP180;6856;51.460;7.158;2023-07-28T02:06:50;99397.00;;;21.80
13570;BMP180;6856;51.460;7.158;2023-07-28T02:09:23;99384.00;;;21.80
13570;BMP180;6856;51.460;7.158;2023-07-28T02:11:57;99394.00;;;21.80
13570;BMP180;6856;51.460;7.158;2023-07-28T02:14:32;99375.00;;;21.80
13570;BMP180;6856;51.460;7.158;2023-07-28T02:17:06;99378.00;;;21.80
13570;BMP180;6856;51.460;7.158;2023-07-28T02:19:40;99381.00;;;21.80
13570;BMP180;6856;51.460;7.158;2023-07-28T02:22:14;99390.00;;;21.80
13570;BMP180;6856;51.460;7.158;2023-07-28T02:24:48;99385.00;;;21.80
13570;BMP180;6856;51.460;7.158;2023-07-28T02:27:22;99387.00;;;21.80
13570;BMP180;6856;51.460;7.158;2023-07-28T02:29:57;99386.00;;;21.80
13570;BMP180;6856;51.460;7.158;2023-07-28T02:32:31;99389.00;;;21.80
13570;BMP180;6856;51.460;7.158;2023-07-28T02:35:06;99394.00;;;21.90
13570;BMP180;6856;51.460;7.158;2023-07-28T02:37:40;99395.00;;;21.90
13570;BMP180;6856;51.460;7.158;2023-07-28T02:40:15;99399.00;;;21.90
13570;BMP180;6856;51.460;7.158;2023-07-28T02:42:49;99401.00;;;21.90
13570;BMP180;6856;51.460;7.158;2023-07-28T02:45:24;99405.00;;;21.90
13570;BMP180;6856;51.460;7.158;2023-07-28T02:47:58;99410.00;;;21.90
13570;BMP180;6856;51.460;7.158;2023-07-28T02:50:32;99413.00;;;21.90
13570;BMP180;6856;51.460;7.158;2023-07-28T02:53:05;99420.00;;;21.90
13570;BMP180;6856;51.460;7.158;2023-07-28T02:55:41;99410.00;;;21.90
13570;BMP180;6856;51.460;7.158;2023-07-28T02:58:16;99419.00;;;21.90
13570;BMP180;6856;51.460;7.158;2023-07-28T03:00:52;99421.00;;;21.90
13570;BMP180;6856;51.460;7.158;2023-07-28T03:03:26;99427.00;;;21.90
13570;BMP180;6856;51.460;7.158;2023-07-28T03:06:00;99425.00;;;21.90
13570;BMP180;6856;51.460;7.158;2023-07-28T03:08:34;99424.00;;;21.90
13570;BMP180;6856;51.460;7.158;2023-07-28T03:11:11;99426.00;;;21.90
13570;BMP180;6856;51.460;7.158;2023-07-28T03:13:45;99425.00;;;21.90
13570;BMP180;6856;51.460;7.158;2023-07-28T03:16:20;99418.00;;;21.90
13570;BMP180;6856;51.460;7.158;2023-07-28T03:18:54;99433.00;;;21.90
13570;BMP180;6856;51.460;7.158;2023-07-28T03:21:30;99424.00;;;21.90
13570;BMP180;6856;51.460;7.158;2023-07-28T03:24:05;99431.00;;;21.90
13570;BMP180;6856;51.460;7.158;2023-07-28T03:26:38;99431.00;;;21.90
13570;BMP180;6856;51.460;7.158;2023-07-28T03:29:12;99430.00;;;21.90
13570;BMP180;6856;51.460;7.158;2023-07-28T03:31:48;99428.00;;;22.00
13570;BMP180;6856;51.460;7.158;2023-07-28T03:34:21;99433.00;;;22.00
13570;BMP180;6856;51.460;7.158;2023-07-28T03:36:55;99438.00;;;22.00
13570;BMP180;6856;51.460;7.158;2023-07-28T03:39:29;99429.00;;;22.00
13570;BMP180;6856;51.460;7.158;2023-07-28T03:42:04;99435.00;;;22.00
13570;BMP180;6856;51.460;7.158;2023-07-28T03:44:38;99432.00;;;22.00
13570;BMP180;6856;51.460;7.158;2023-07-28T03:47:15;99438.00;;;22.00
13570;BMP180;6856;51.460;7.158;2023-07-28T03:49:50;99434.00;;;22.10
13570;BMP180;6856;51.460;7.158;2023-07-28T03:52:24;99437.00;;;22.10
13570;BMP180;6856;51.460;7.158;2023-07-28T03:54:58;99423.00;;;22.10
13570;BMP180;6856;51.460;7.158;2023-07-28T03:57:33;99449.00;;;22.10
13570;BMP180;6856;51.460;7.158;2023-07-28T04:00:08;99439.00;;;22.10
13570;BMP180;6856;51.460;7.158;2023-07-28T04:02:44;99448.00;;;22.10
13570;BMP180;6856;51.460;7.158;2023-07-28T04:05:19;99448.00;;;22.10
13570;BMP180;6856;51.460;7.158;2023-07-28T04:07:53;99452.00;;;22.10
13570;BMP180;6856;51.460;7.158;2023-07-28T04:10:27;99453.00;;;22.10
13570;BMP180;6856;51.460;7.158;2023-07-28T04:13:01;99442.00;;;22.20
13570;BMP180;6856;51.460;7.158;2023-07-28T04:15:35;99438.00;;;22.20
13570;BMP180;6856;51.460;7.158;2023-07-28T04:18:10;99443.00;;;22.10
13570;BMP180;6856;51.460;7.158;2023-07-28T04:20:44;99441.00;;;22.20
13570;BMP180;6856;51.460;7.158;2023-07-28T04:23:18;99441.00;;;22.20
13570;BMP180;6856;51.460;7.158;2023-07-28T04:25:52;99451.00;;;22.20
13570;BMP180;6856;51.460;7.158;2023-07-28T04:28:26;99445.00;;;22.20
13570;BMP180;6856;51.460;7.158;2023-07-28T04:31:01;99451.00;;;22.20
13570;BMP180;6856;51.460;7.158;2023-07-28T04:33:36;99456.00;;;22.20
13570;BMP180;6856;51.460;7.158;2023-07-28T04:36:10;99446.00;;;22.20
13570;BMP180;6856;51.460;7.158;2023-07-28T04:38:44;99450.00;;;22.20
13570;BMP180;6856;51.460;7.158;2023-07-28T04:41:18;99451.00;;;22.30
13570;BMP180;6856;51.460;7.158;2023-07-28T04:43:51;99455.00;;;22.30
13570;BMP180;6856;51.460;7.158;2023-07-28T04:46:25;99460.00;;;22.30
13570;BMP180;6856;51.460;7.158;2023-07-28T04:49:01;99467.00;;;22.30
13570;BMP180;6856;51.460;7.158;2023-07-28T04:51:36;99468.00;;;22.30
13570;BMP180;6856;51.460;7.158;2023-07-28T04:54:09;99470.00;;;22.30
13570;BMP180;6856;51.460;7.158;2023-07-28T04:56:43;99467.00;;;22.30
13570;BMP180;6856;51.460;7.158;2023-07-28T04:59:18;99470.00;;;22.30
13570;BMP180;6856;51.460;7.158;2023-07-28T05:01:52;99464.00;;;22.30
13570;BMP180;6856;51.460;7.158;2023-07-28T05:04:27;99466.00;;;22.30
13570;BMP180;6856;51.460;7.158;2023-07-28T05:07:02;99462.00;;;22.30
13570;BMP180;6856;51.460;7.158;2023-07-28T05:09:35;99471.00;;;22.40
13570;BMP180;6856;51.460;7.158;2023-07-28T05:12:09;99476.00;;;22.40
13570;BMP180;6856;51.460;7.158;2023-07-28T05:14:43;99467.00;;;22.40
13570;BMP180;6856;51.460;7.158;2023-07-28T05:17:17;99467.00;;;22.40
13570;BMP180;6856;51.460;7.158;2023-07-28T05:19:52;99465.00;;;22.40
13570;BMP180;6856;51.460;7.158;2023-07-28T05:22:26;99476.00;;;22.50
13570;BMP180;6856;51.460;7.158;2023-07-28T05:25:00;99466.00;;;22.50
13570;BMP180;6856;51.460;7.158;2023-07-28T05:27:33;99455.00;;;22.50
13570;BMP180;6856;51.460;7.158;2023-07-28T05:30:08;99469.00;;;22.50
13570;BMP180;6856;51.460;7.158;2023-07-28T05:32:44;99473.00;;;22.50
13570;BMP180;6856;51.460;7.158;2023-07-28T05:35:20;99469.00;;;22.50
13570;BMP180;6856;51.460;7.158;2023-07-28T05:37:54;99478.00;;;22.50
13570;BMP180;6856;51.460;7.158;2023-07-28T05:40:27;99473.00;;;22.50
13570;BMP180;6856;51.460;7.158;2023-07-28T05:43:01;99468.00;;;22.50
13570;BMP180;6856;51.460;7.158;2023-07-28T05:45:35;99476.00;;;22.60
13570;BMP180;6856;51.460;7.158;2023-07-28T05:48:09;99476.00;;;22.60
13570;BMP180;6856;51.460;7.158;2023-07-28T05:50:44;99489.00;;;22.60
13570;BMP180;6856;51.460;7.158;2023-07-28T05:53:18;99493.00;;;22.60
13570;BMP180;6856;51.460;7.158;2023-07-28T05:55:53;99497.00;;;22.60
13570;BMP180;6856;51.460;7.158;2023-07-28T05:58:27;99493.00;;;22.60
13570;BMP180;6856;51.460;7.158;2023-07-28T06:01:02;99503.00;;;22.60
13570;BMP180;6856;51.460;7.158;2023-07-28T06:03:37;99505.00;;;22.60
13570;BMP180;6856;51.460;7.158;2023-07-28T06:06:17;99509.00;;;22.60
13570;BMP180;6856;51.460;7.158;2023-07-28T06:08:51;99517.00;;;22.60
13570;BMP180;6856;51.460;7.158;2023-07-28T06:11:25;99505.00;;;22.60
13570;BMP180;6856;51.460;7.158;2023-07-28T06:14:00;99510.00;;;22.60
13570;BMP180;6856;51.460;7.158;2023-07-28T06:16:33;99516.00;;;22.60
13570;BMP180;6856;51.460;7.158;2023-07-28T06:19:07;99517.00;;;22.60
13570;BMP180;6856;51.460;7.158;2023-07-28T06:21:43;99518.00;;;22.60
13570;BMP180;6856;51.460;7.158;2023-07-28T06:24:16;99513.00;;;22.70
13570;BMP180;6856;51.460;7.158;2023-07-28T06:26:50;99526.00;;;22.70
13570;BMP180;6856;51.460;7.158;2023-07-28T06:29:24;99529.00;;;22.70
13570;BMP180;6856;51.460;7.158;2023-07-28T06:31:58;99533.00;;;22.70
13570;BMP180;6856;51.460;7.158;2023-07-28T06:34:32;99531.00;;;22.70
13570;BMP180;6856;51.460;7.158;2023-07-28T06:37:07;99537.00;;;22.70
13570;BMP180;6856;51.460;7.158;2023-07-28T06:39:41;99538.00;;;22.70
13570;BMP180;6856;51.460;7.158;2023-07-28T06:42:15;99533.00;;;22.70
13570;BMP180;6856;51.460;7.158;2023-07-28T06:44:48;99535.00;;;22.70
13570;BMP180;6856;51.460;7.158;2023-07-28T06:47:22;99509.00;;;22.70
13570;BMP180;6856;51.460;7.158;2023-07-28T06:49:57;99541.00;;;22.80
13570;BMP180;6856;51.460;7.158;2023-07-28T06:52:32;99535.00;;;22.80
13570;BMP180;6856;51.460;7.158;2023-07-28T06:55:07;99545.00;;;22.80
13570;BMP180;6856;51.460;7.158;2023-07-28T06:57:40;99549.00;;;22.80
13570;BMP180;6856;51.460;7.158;2023-07-28T07:00:16;99547.00;;;22.80
13570;BMP180;6856;51.460;7.158;2023-07-28T07:02:51;99556.00;;;22.90
13570;BMP180;6856;51.460;7.158;2023-07-28T07:05:25;99563.00;;;22.90
13570;BMP180;6856;51.460;7.158;2023-07-28T07:08:00;99569.00;;;22.90
13570;BMP180;6856;51.460;7.158;2023-07-28T07:10:34;99575.00;;;22.90
13570;BMP180;6856;51.460;7.158;2023-07-28T07:13:08;99569.00;;;22.90
13570;BMP180;6856;51.460;7.158;2023-07-28T07:15:46;99571.00;;;22.90
13570;BMP180;6856;51.460;7.158;2023-07-28T07:18:21;99574.00;;;23.00
13570;BMP180;6856;51.460;7.158;2023-07-28T07:20:54;99583.00;;;23.00
13570;BMP180;6856;51.460;7.158;2023-07-28T07:23:30;99579.00;;;23.00
13570;BMP180;6856;51.460;7.158;2023-07-28T07:26:04;99578.00;;;23.00
13570;BMP180;6856;51.460;7.158;2023-07-28T07:28:37;99571.00;;;23.00
13570;BMP180;6856;51.460;7.158;2023-07-28T07:31:12;99575.00;;;23.10
13570;BMP180;6856;51.460;7.158;2023-07-28T07:33:47;99577.00;;;23.10
13570;BMP180;6856;51.460;7.158;2023-07-28T07:36:20;99578.00;;;23.10
13570;BMP180;6856;51.460;7.158;2023-07-28T07:38:57;99574.00;;;23.10
13570;BMP180;6856;51.460;7.158;2023-07-28T07:41:31;99581.00;;;23.20
13570;BMP180;6856;51.460;7.158;2023-07-28T07:44:05;99580.00;;;23.20
13570;BMP180;6856;51.460;7.158;2023-07-28T07:46:39;99580.00;;;23.20
13570;BMP180;6856;51.460;7.158;2023-07-28T07:49:15;99590.00;;;23.20
13570;BMP180;6856;51.460;7.158;2023-07-28T07:51:50;99584.00;;;23.30
13570;BMP180;6856;51.460;7.158;2023-07-28T07:54:25;99589.00;;;23.30
13570;BMP180;6856;51.460;7.158;2023-07-28T07:56:59;99592.00;;;23.30
13570;BMP180;6856;51.460;7.158;2023-07-28T07:59:33;99599.00;;;23.30
13570;BMP180;6856;51.460;7.158;2023-07-28T08:02:07;99595.00;;;23.30
13570;BMP180;6856;51.460;7.158;2023-07-28T08:04:42;99589.00;;;23.30
13570;BMP180;6856;51.460;7.158;2023-07-28T08:07:16;99589.00;;;23.30
13570;BMP180;6856;51.460;7.158;2023-07-28T08:09:51;99589.00;;;23.30
13570;BMP180;6856;51.460;7.158;2023-07-28T08:12:25;99599.00;;;23.40
13570;BMP180;6856;51.460;7.158;2023-07-28T08:14:59;99598.00;;;23.40
13570;BMP180;6856;51.460;7.158;2023-07-28T08:17:33;99587.00;;;23.40
13570;BMP180;6856;51.460;7.158;2023-07-28T08:20:08;99606.00;;;23.40
13570;BMP180;6856;51.460;7.158;2023-07-28T08:22:43;99597.00;;;23.40
13570;BMP180;6856;51.460;7.158;2023-07-28T08:25:18;99613.00;;;23.50
13570;BMP180;6856;51.460;7.158;2023-07-28T08:27:53;99615.00;;;23.50
13570;BMP180;6856;51.460;7.158;2023-07-28T08:30:27;99608.00;;;23.50
13570;BMP180;6856;51.460;7.158;2023-07-28T08:33:01;99620.00;;;23.50
13570;BMP180;6856;51.460;7.158;2023-07-28T08:35:36;99616.00;;;23.50
13570;BMP180;6856;51.460;7.158;2023-07-28T08:38:09;99624.00;;;23.60
13570;BMP180;6856;51.460;7.158;2023-07-28T08:40:46;99605.00;;;23.60
13570;BMP180;6856;51.460;7.158;2023-07-28T08:43:20;99628.00;;;23.60
13570;BMP180;6856;51.460;7.158;2023-07-28T08:45:55;99629.00;;;23.60
13570;BMP180;6856;51.460;7.158;2023-07-28T08:48:29;99634.00;;;23.70
13570;BMP180;6856;51.460;7.158;2023-07-28T08:51:03;99632.00;;;23.70
13570;BMP180;6856;51.460;7.158;2023-07-28T08:53:37;99632.00;;;23.70
13570;BMP180;6856;51.460;7.158;2023-07-28T08:56:12;99638.00;;;23.70
13570;BMP180;6856;51.460;7.158;2023-07-28T08:58:46;99636.00;;;23.80
13570;BMP180;6856;51.460;7.158;2023-07-28T09:01:23;99646.00;;;23.80
13570;BMP180;6856;51.460;7.158;2023-07-28T09:03:57;99644.00;;;23.80
13570;BMP180;6856;51.460;7.158;2023-07-28T09:06:32;99647.00;;;23.80
13570;BMP180;6856;51.460;7.158;2023-07-28T09:09:07;99643.00;;;23.80
13570;BMP180;6856;51.460;7.158;2023-07-28T09:11:46;99636.00;;;23.80
13570;BMP180;6856;51.460;7.158;2023-07-28T09:14:21;99637.00;;;23.80
13570;BMP180;6856;51.460;7.158;2023-07-28T09:16:55;99637.00;;;23.80
13570;BMP180;6856;51.460;7.158;2023-07-28T09:19:29;99642.00;;;23.90
13570;BMP180;6856;51.460;7.158;2023-07-28T09:22:03;99646.00;;;23.90
13570;BMP180;6856;51.460;7.158;2023-07-28T09:24:37;99653.00;;;23.90
13570;BMP180;6856;51.460;7.158;2023-07-28T09:27:22;99652.00;;;23.90
13570;BMP180;6856;51.460;7.158;2023-07-28T09:29:56;99639.00;;;24.00
13570;BMP180;6856;51.460;7.158;2023-07-28T09:32:32;99659.00;;;24.00
13570;BMP180;6856;51.460;7.158;2023-07-28T09:35:11;99649.00;;;24.00
13570;BMP180;6856;51.460;7.158;2023-07-28T09:37:48;99642.00;;;24.00
13570;BMP180;6856;51.460;7.158;2023-07-28T09:40:23;99640.00;;;24.10
13570;BMP180;6856;51.460;7.158;2023-07-28T09:42:59;99647.00;;;24.10
13570;BMP180;6856;51.460;7.158;2023-07-28T09:45:34;99645.00;;;24.20
13570;BMP180;6856;51.460;7.158;2023-07-28T09:48:13;99653.00;;;24.20
13570;BMP180;6856;51.460;7.158;2023-07-28T09:50:47;99645.00;;;24.20
13570;BMP180;6856;51.460;7.158;2023-07-28T09:53:22;99645.00;;;24.20
13570;BMP180;6856;51.460;7.158;2023-07-28T09:55:59;99645.00;;;24.30
13570;BMP180;6856;51.460;7.158;2023-07-28T09:58:41;99646.00;;;24.30
13570;BMP180;6856;51.460;7.158;2023-07-28T10:01:17;99648.00;;;24.40
13570;BMP180;6856;51.460;7.158;2023-07-28T10:03:52;99652.00;;;24.40
13570;BMP180;6856;51.460;7.158;2023-07-28T10:06:26;99654.00;;;24.50
13570;BMP180;6856;51.460;7.158;2023-07-28T10:09:02;99655.00;;;24.50
13570;BMP180;6856;51.460;7.158;2023-07-28T10:11:37;99654.00;;;24.50
13570;BMP180;6856;51.460;7.158;2023-07-28T10:14:26;99659.00;;;24.50
13570;BMP180;6856;51.460;7.158;2023-07-28T10:17:01;99658.00;;;24.60
13570;BMP180;6856;51.460;7.158;2023-07-28T10:19:36;99671.00;;;24.60
13570;BMP180;6856;51.460;7.158;2023-07-28T10:22:11;99677.00;;;24.60
13570;BMP180;6856;51.460;7.158;2023-07-28T10:24:53;99667.00;;;24.70
13570;BMP180;6856;51.460;7.158;2023-07-28T10:27:33;99667.00;;;24.70
13570;BMP180;6856;51.460;7.158;2023-07-28T10:30:14;99666.00;;;24.60
13570;BMP180;6856;51.460;7.158;2023-07-28T10:32:49;99670.00;;;24.60
13570;BMP180;6856;51.460;7.158;2023-07-28T10:35:25;99673.00;;;24.60
13570;BMP180;6856;51.460;7.158;2023-07-28T10:38:32;99684.00;;;24.70
13570;BMP180;6856;51.460;7.158;2023-07-28T10:41:13;99678.00;;;24.70
13570;BMP180;6856;51.460;7.158;2023-07-28T10:43:47;99674.00;;;24.70
13570;BMP180;6856;51.460;7.158;2023-07-28T10:46:22;99682.00;;;24.70
13570;BMP180;6856;51.460;7.158;2023-07-28T10:49:04;99683.00;;;24.80
13570;BMP180;6856;51.460;7.158;2023-07-28T10:51:40;99680.00;;;24.80
13570;BMP180;6856;51.460;7.158;2023-07-28T10:54:14;99669.00;;;24.80
13570;BMP180;6856;51.460;7.158;2023-07-28T10:56:50;99683.00;;;24.80
13570;BMP180;6856;51.460;7.158;2023-07-28T10:59:24;99673.00;;;24.90
13570;BMP180;6856;51.460;7.158;2023-07-28T11:02:00;99682.00;;;24.90
13570;BMP180;6856;51.460;7.158;2023-07-28T11:04:34;99681.00;;;24.90
13570;BMP180;6856;51.460;7.158;2023-07-28T11:07:08;99685.00;;;25.00
13570;BMP180;6856;51.460;7.158;2023-07-28T11:09:43;99684.00;;;25.00
13570;BMP180;6856;51.460;7.158;2023-07-28T11:12:21;99673.00;;;25.00
13570;BMP180;6856;51.460;7.158;2023-07-28T11:14:56;99682.00;;;25.10
13570;BMP180;6856;51.460;7.158;2023-07-28T11:17:32;99678.00;;;25.10
13570;BMP180;6856;51.460;7.158;2023-07-28T11:20:15;99672.00;;;25.20
13570;BMP180;6856;51.460;7.158;2023-07-28T11:22:54;99679.00;;;25.30
13570;BMP180;6856;51.460;7.158;2023-07-28T11:25:30;99680.00;;;25.30
13570;BMP180;6856;51.460;7.158;2023-07-28T11:28:04;99679.00;;;25.40
13570;BMP180;6856;51.460;7.158;2023-07-28T11:30:40;99672.00;;;25.40
13570;BMP180;6856;51.460;7.158;2023-07-28T11:33:16;99679.00;;;25.50
13570;BMP180;6856;51.460;7.158;2023-07-28T11:35:50;99685.00;;;25.60
13570;BMP180;6856;51.460;7.158;2023-07-28T11:38:26;99684.00;;;25.60
13570;BMP180;6856;51.460;7.158;2023-07-28T11:41:02;99678.00;;;25.70
13570;BMP180;6856;51.460;7.158;2023-07-28T11:43:38;99677.00;;;25.70
13570;BMP180;6856;51.460;7.158;2023-07-28T11:46:35;99681.00;;;25.80
13570;BMP180;6856;51.460;7.158;2023-07-28T11:49:14;99677.00;;;25.80
13570;BMP180;6856;51.460;7.158;2023-07-28T11:51:51;99668.00;;;25.90
13570;BMP180;6856;51.460;7.158;2023-07-28T11:54:27;99679.00;;;25.90
13570;BMP180;6856;51.460;7.158;2023-07-28T11:57:00;99672.00;;;26.00
13570;BMP180;6856;51.460;7.158;2023-07-28T11:59:35;99669.00;;;26.10
13570;BMP180;6856;51.460;7.158;2023-07-28T12:02:10;99673.00;;;26.20
13570;BMP180;6856;51.460;7.158;2023-07-28T12:04:48;99665.00;;;26.20
13570;BMP180;6856;51.460;7.158;2023-07-28T12:07:29;99677.00;;;26.20
13570;BMP180;6856;51.460;7.158;2023-07-28T12:10:05;99684.00;;;26.20
13570;BMP180;6856;51.460;7.158;2023-07-28T12:12:44;99685.00;;;26.20
13570;BMP180;6856;51.460;7.158;2023-07-28T12:15:23;99697.00;;;26.20
13570;BMP180;6856;51.460;7.158;2023-07-28T12:18:09;99695.00;;;26.20
13570;BMP180;6856;51.460;7.158;2023-07-28T12:20:49;99692.00;;;26.20
13570;BMP180;6856;51.460;7.158;2023-07-28T12:23:23;99687.00;;;26.20
13570;BMP180;6856;51.460;7.158;2023-07-28T12:26:02;99686.00;;;26.20
13570;BMP180;6856;51.460;7.158;2023-07-28T12:28:36;99677.00;;;26.20
13570;BMP180;6856;51.460;7.158;2023-07-28T12:31:13;99681.00;;;26.30
13570;BMP180;6856;51.460;7.158;2023-07-28T12:33:47;99666.00;;;26.40
13570;BMP180;6856;51.460;7.158;2023-07-28T12:36:36;99673.00;;;26.50
13570;BMP180;6856;51.460;7.158;2023-07-28T12:39:12;99669.00;;;26.50
13570;BMP180;6856;51.460;7.158;2023-07-28T12:41:49;99669.00;;;26.60
13570;BMP180;6856;51.460;7.158;2023-07-28T12:49:01;99683.00;;;26.70
13570;BMP180;6856;51.460;7.158;2023-07-28T12:51:36;99684.00;;;26.70
13570;BMP180;6856;51.460;7.158;2023-07-28T12:54:10;99670.00;;;26.80
13570;BMP180;6856;51.460;7.158;2023-07-28T12:56:44;99668.00;;;26.80
13570;BMP180;6856;51.460;7.158;2023-07-28T12:59:18;99676.00;;;26.90
13570;BMP180;6856;51.460;7.158;2023-07-28T13:01:55;99672.00;;;27.00
13570;BMP180;6856;51.460;7.158;2023-07-28T13:04:31;99682.00;;;27.10
13570;BMP180;6856;51.460;7.158;2023-07-28T13:07:07;99690.00;;;27.10
13570;BMP180;6856;51.460;7.158;2023-07-28T13:09:44;99678.00;;;27.20
13570;BMP180;6856;51.460;7.158;2023-07-28T13:12:18;99679.00;;;27.30
13570;BMP180;6856;51.460;7.158;2023-07-28T13:14:54;99681.00;;;27.30
13570;BMP180;6856;51.460;7.158;2023-07-28T13:17:28;99686.00;;;27.40
13570;BMP180;6856;51.460;7.158;2023-07-28T13:20:03;99685.00;;;27.40
13570;BMP180;6856;51.460;7.158;2023-07-28T13:22:39;99686.00;;;27.40
13570;BMP180;6856;51.460;7.158;2023-07-28T13:25:13;99699.00;;;27.40
13570;BMP180;6856;51.460;7.158;2023-07-28T13:27:47;99693.00;;;27.40
13570;BMP180;6856;51.460;7.158;2023-07-28T13:30:22;99691.00;;;27.50
13570;BMP180;6856;51.460;7.158;2023-07-28T13:32:58;99677.00;;;27.50
13570;BMP180;6856;51.460;7.158;2023-07-28T13:35:34;99682.00;;;27.50
13570;BMP180;6856;51.460;7.158;2023-07-28T13:38:09;99674.00;;;27.50
13570;BMP180;6856;51.460;7.158;2023-07-28T13:40:43;99668.00;;;27.50
13570;BMP180;6856;51.460;7.158;2023-07-28T13:43:17;99680.00;;;27.50
13570;BMP180;6856;51.460;7.158;2023-07-28T13:45:51;99671.00;;;27.60
13570;BMP180;6856;51.460;7.158;2023-07-28T13:48:25;99655.00;;;27.60
13570;BMP180;6856;51.460;7.158;2023-07-28T13:50:58;99671.00;;;27.70
13570;BMP180;6856;51.460;7.158;2023-07-28T13:53:34;99667.00;;;27.70
13570;BMP180;6856;51.460;7.158;2023-07-28T13:56:09;99672.00;;;27.80
13570;BMP180;6856;51.460;7.158;2023-07-28T13:58:46;99665.00;;;27.80
13570;BMP180;6856;51.460;7.158;2023-07-28T14:01:24;99664.00;;;27.80
13570;BMP180;6856;51.460;7.158;2023-07-28T14:03:58;99664.00;;;27.80
13570;BMP180;6856;51.460;7.158;2023-07-28T14:06:32;99664.00;;;27.80
13570;BMP180;6856;51.460;7.158;2023-07-28T14:09:07;99669.00;;;27.90
13570;BMP180;6856;51.460;7.158;2023-07-28T14:11:42;99675.00;;;27.80
13570;BMP180;6856;51.460;7.158;2023-07-28T14:14:16;99659.00;;;27.80
13570;BMP180;6856;51.460;7.158;2023-07-28T14:16:50;99667.00;;;27.80
13570;BMP180;6856;51.460;7.158;2023-07-28T14:19:24;99663.00;;;27.80
13570;BMP180;6856;51.460;7.158;2023-07-28T14:21:58;99665.00;;;27.70
13570;BMP180;6856;51.460;7.158;2023-07-28T14:24:34;99669.00;;;27.70
13570;BMP180;6856;51.460;7.158;2023-07-28T14:27:08;99671.00;;;27.80
13570;BMP180;6856;51.460;7.158;2023-07-28T14:29:42;99670.00;;;27.70
13570;BMP180;6856;51.460;7.158;2023-07-28T14:32:16;99673.00;;;27.70
13570;BMP180;6856;51.460;7.158;2023-07-28T14:34:50;99675.00;;;27.70
13570;BMP180;6856;51.460;7.158;2023-07-28T14:37:24;99665.00;;;27.70
13570;BMP180;6856;51.460;7.158;2023-07-28T14:39:59;99671.00;;;27.70
13570;BMP180;6856;51.460;7.158;2023-07-28T14:42:33;99670.00;;;27.70
13570;BMP180;6856;51.460;7.158;2023-07-28T14:45:07;99659.00;;;27.70
13570;BMP180;6856;51.460;7.158;2023-07-28T14:47:41;99667.00;;;27.70
13570;BMP180;6856;51.460;7.158;2023-07-28T14:50:15;99662.00;;;27.70
13570;BMP180;6856;51.460;7.158;2023-07-28T14:52:49;99670.00;;;27.70
13570;BMP180;6856;51.460;7.158;2023-07-28T14:55:24;99667.00;;;27.70
13570;BMP180;6856;51.460;7.158;2023-07-28T14:57:58;99661.00;;;27.70
13570;BMP180;6856;51.460;7.158;2023-07-28T15:00:32;99671.00;;;27.60
13570;BMP180;6856;51.460;7.158;2023-07-28T15:03:06;99667.00;;;27.60
13570;BMP180;6856;51.460;7.158;2023-07-28T15:05:41;99669.00;;;27.60
13570;BMP180;6856;51.460;7.158;2023-07-28T15:08:14;99666.00;;;27.50
13570;BMP180;6856;51.460;7.158;2023-07-28T15:10:49;99666.00;;;27.50
13570;BMP180;6856;51.460;7.158;2023-07-28T15:13:24;99670.00;;;27.50